Darstellungsparameter: Aktuell verwendete Einstellungen:
Skalierung der Graphiken ... ?
xyx+y,   Skalierungsfaktor:      Skalierung: Modus: x, Faktor: 1
Darstellungszeitraum ... ?
Vom - - bis: - -   Zeitraum: 15.02.2020 - 15.02.2020
Min/Max/Avg-Anzeige ... ?
Zeige MMA aktuell
Zeige MMA Monat
Zeige MMA alles
Zeige --A aktuell
Zeige --A Monat
Zeige --A alles
Keine MMA-Anzeige
MMA:
Keine MMA-Graphiken
MMA-Basis: 15.02.2020 - 15.02.2020
Quicknavigation für Darstellung... ?
Tage:      1T, 2T, 3T, 5T -1T -2T -3T -5T +1T +2T +3T +5T
Wochen: 1W, 2W, 3W -1W -2W -3W +1W +2W +3W
Monate: 1M, 3M, 6M -1M -3M -6M +1M +3M +6M
Jahre:    1J, 3J, 5J, 10J -1J -3J -5J -10J +1J +3J +5J +10J
Nutze für die Darstellung ... ?
Originaldaten oder Mittelwerte auf ...
Stundenbasis Tagesbasis Wochenbasis
Monatsbasis Jahresbasis      Datenbasis: Original-Daten
Darstellen als:
Statistik (Auto) Statistik J:M      Darstellung:
Zur Graphik,    zurück zur Übersicht aller Sensoren.
 
Tabellarische Datenbersicht: ?
 
Sensor: Nr:Datum:Temp:Feuchte:Taupunkt:
Aussen-T/F 1 15-02-2020 00:00:00 2.9 C 95 % 2.18 C
2 15-02-2020 00:05:00 2.8 C 95 % 2.08 C
3 15-02-2020 00:10:00 2.8 C 95 % 2.08 C
4 15-02-2020 00:15:00 2.8 C 95 % 2.08 C
5 15-02-2020 00:20:00 2.7 C 95 % 1.98 C
6 15-02-2020 00:25:00 2.7 C 95 % 1.98 C
7 15-02-2020 00:30:00 2.7 C 95 % 1.98 C
8 15-02-2020 00:35:00 2.7 C 95 % 1.98 C
9 15-02-2020 00:40:00 2.7 C 96 % 2.13 C
10 15-02-2020 00:45:00 2.7 C 96 % 2.13 C
11 15-02-2020 00:50:00 2.7 C 96 % 2.13 C
12 15-02-2020 00:55:00 2.8 C 96 % 2.23 C
13 15-02-2020 01:00:00 2.8 C 96 % 2.23 C
14 15-02-2020 01:05:00 2.9 C 96 % 2.33 C
15 15-02-2020 01:10:00 3 C 96 % 2.43 C
16 15-02-2020 01:15:00 3.2 C 96 % 2.63 C
17 15-02-2020 01:20:00 3.2 C 96 % 2.63 C
18 15-02-2020 01:25:00 3.3 C 96 % 2.72 C
19 15-02-2020 01:30:00 3.3 C 96 % 2.72 C
20 15-02-2020 01:35:00 3.3 C 96 % 2.72 C
21 15-02-2020 01:40:00 3.3 C 96 % 2.72 C
22 15-02-2020 01:45:00 3.3 C 96 % 2.72 C
23 15-02-2020 01:50:00 3.3 C 96 % 2.72 C
24 15-02-2020 01:55:00 3.4 C 96 % 2.82 C
25 15-02-2020 02:00:00 3.3 C 96 % 2.72 C
Sensor: Nr:Datum:Temp:Feuchte:Taupunkt:
Aussen-T/F 26 15-02-2020 02:05:00 3.3 C 96 % 2.72 C
27 15-02-2020 02:10:00 3.3 C 96 % 2.72 C
28 15-02-2020 02:15:00 3.4 C 96 % 2.82 C
29 15-02-2020 02:20:00 3.4 C 96 % 2.82 C
30 15-02-2020 02:25:00 3.4 C 96 % 2.82 C
31 15-02-2020 02:30:00 3.3 C 96 % 2.72 C
32 15-02-2020 02:35:00 3.2 C 96 % 2.63 C
33 15-02-2020 02:40:00 3.2 C 96 % 2.63 C
34 15-02-2020 02:45:00 3.1 C 96 % 2.53 C
35 15-02-2020 02:50:00 3.1 C 96 % 2.53 C
36 15-02-2020 02:55:00 3.1 C 96 % 2.53 C
37 15-02-2020 03:00:00 3 C 96 % 2.43 C
38 15-02-2020 03:05:00 2.9 C 96 % 2.33 C
39 15-02-2020 03:10:00 2.8 C 96 % 2.23 C
40 15-02-2020 03:15:00 2.7 C 96 % 2.13 C
41 15-02-2020 03:20:00 2.6 C 96 % 2.03 C
42 15-02-2020 03:25:00 2.7 C 96 % 2.13 C
43 15-02-2020 03:30:00 2.7 C 96 % 2.13 C
44 15-02-2020 03:35:00 2.7 C 96 % 2.13 C
45 15-02-2020 03:40:00 2.7 C 96 % 2.13 C
46 15-02-2020 03:45:00 2.6 C 96 % 2.03 C
47 15-02-2020 03:50:00 2.5 C 96 % 1.93 C
48 15-02-2020 03:55:00 2.4 C 96 % 1.83 C
49 15-02-2020 04:00:00 2.4 C 96 % 1.83 C
50 15-02-2020 04:05:00 2.4 C 96 % 1.83 C
Sensor: Nr:Datum:Temp:Feuchte:Taupunkt:
Aussen-T/F 51 15-02-2020 04:10:00 2.5 C 96 % 1.93 C
52 15-02-2020 04:15:00 2.4 C 96 % 1.83 C
53 15-02-2020 04:20:00 2.5 C 96 % 1.93 C
54 15-02-2020 04:25:00 2.5 C 96 % 1.93 C
55 15-02-2020 04:30:00 2.5 C 96 % 1.93 C
56 15-02-2020 04:35:00 2.4 C 96 % 1.83 C
57 15-02-2020 04:40:00 2.4 C 96 % 1.83 C
58 15-02-2020 04:45:00 2.5 C 97 % 2.07 C
59 15-02-2020 04:50:00 2.6 C 97 % 2.17 C
60 15-02-2020 04:55:00 2.5 C 97 % 2.07 C
61 15-02-2020 05:00:00 2.5 C 97 % 2.07 C
62 15-02-2020 05:05:00 2.4 C 97 % 1.97 C
63 15-02-2020 05:10:00 2.3 C 96 % 1.73 C
64 15-02-2020 05:15:00 2.3 C 96 % 1.73 C
65 15-02-2020 05:20:00 2.3 C 96 % 1.73 C
66 15-02-2020 05:25:00 2.2 C 96 % 1.63 C
67 15-02-2020 05:30:00 2.2 C 96 % 1.63 C
68 15-02-2020 05:35:00 2.2 C 96 % 1.63 C
69 15-02-2020 05:40:00 2.2 C 97 % 1.77 C
70 15-02-2020 05:45:00 2.2 C 96 % 1.63 C
71 15-02-2020 05:50:00 2.1 C 96 % 1.53 C
72 15-02-2020 05:55:00 2.1 C 96 % 1.53 C
73 15-02-2020 06:00:00 2 C 96 % 1.43 C
74 15-02-2020 06:05:00 2 C 96 % 1.43 C
75 15-02-2020 06:10:00 2 C 96 % 1.43 C
Sensor: Nr:Datum:Temp:Feuchte:Taupunkt:
Aussen-T/F 76 15-02-2020 06:15:00 1.9 C 96 % 1.33 C
77 15-02-2020 06:20:00 1.8 C 96 % 1.23 C
78 15-02-2020 06:25:00 1.8 C 96 % 1.23 C
79 15-02-2020 06:30:00 1.8 C 96 % 1.23 C
80 15-02-2020 06:35:00 1.8 C 96 % 1.23 C
81 15-02-2020 06:40:00 1.8 C 97 % 1.38 C
82 15-02-2020 06:45:00 1.8 C 97 % 1.38 C
83 15-02-2020 06:50:00 1.8 C 96 % 1.23 C
84 15-02-2020 06:55:00 1.8 C 97 % 1.38 C
85 15-02-2020 07:00:00 1.8 C 97 % 1.38 C
86 15-02-2020 07:05:00 1.8 C 97 % 1.38 C
87 15-02-2020 07:10:00 1.8 C 97 % 1.38 C
88 15-02-2020 07:15:00 1.8 C 97 % 1.38 C
89 15-02-2020 07:20:00 1.7 C 96 % 1.13 C
90 15-02-2020 07:25:00 1.6 C 97 % 1.18 C
91 15-02-2020 07:30:00 1.5 C 97 % 1.08 C
92 15-02-2020 07:35:00 1.4 C 97 % 0.98 C
93 15-02-2020 07:40:00 1.6 C 96 % 1.03 C
94 15-02-2020 07:45:00 1.7 C 97 % 1.28 C
95 15-02-2020 07:50:00 1.9 C 97 % 1.48 C
96 15-02-2020 07:55:00 2.1 C 97 % 1.67 C
97 15-02-2020 08:00:00 2.1 C 97 % 1.67 C
98 15-02-2020 08:05:00 2.1 C 97 % 1.67 C
99 15-02-2020 08:10:00 2 C 97 % 1.58 C
100 15-02-2020 08:15:00 2 C 97 % 1.58 C
Sensor: Nr:Datum:Temp:Feuchte:Taupunkt:
Aussen-T/F 101 15-02-2020 08:20:00 2.1 C 97 % 1.67 C
102 15-02-2020 08:25:00 2.2 C 97 % 1.77 C
103 15-02-2020 08:30:00 2.4 C 97 % 1.97 C
104 15-02-2020 08:35:00 2.4 C 97 % 1.97 C
105 15-02-2020 08:40:00 2.6 C 97 % 2.17 C
106 15-02-2020 08:45:00 2.7 C 97 % 2.27 C
107 15-02-2020 08:50:00 2.7 C 97 % 2.27 C
108 15-02-2020 08:55:00 2.8 C 97 % 2.37 C
109 15-02-2020 09:00:00 3.1 C 97 % 2.67 C
110 15-02-2020 09:05:00 3.1 C 97 % 2.67 C
111 15-02-2020 09:10:00 3.3 C 97 % 2.87 C
112 15-02-2020 09:15:00 3.4 C 97 % 2.97 C
113 15-02-2020 09:20:00 3.5 C 97 % 3.07 C
114 15-02-2020 09:25:00 3.6 C 97 % 3.17 C
115 15-02-2020 09:30:00 3.7 C 97 % 3.27 C
116 15-02-2020 09:35:00 3.8 C 97 % 3.37 C
117 15-02-2020 09:40:00 3.9 C 97 % 3.47 C
118 15-02-2020 09:45:00 4.1 C 98 % 3.81 C
119 15-02-2020 09:50:00 4.3 C 97 % 3.87 C
120 15-02-2020 09:55:00 4.3 C 98 % 4.01 C
121 15-02-2020 10:00:00 4.4 C 98 % 4.11 C
122 15-02-2020 10:05:00 4.5 C 98 % 4.21 C
123 15-02-2020 10:10:00 4.5 C 97 % 4.07 C
124 15-02-2020 10:15:00 4.6 C 97 % 4.17 C
125 15-02-2020 10:20:00 4.7 C 98 % 4.41 C
Sensor: Nr:Datum:Temp:Feuchte:Taupunkt:
Aussen-T/F 126 15-02-2020 10:25:00 4.8 C 98 % 4.51 C
127 15-02-2020 10:30:00 4.8 C 97 % 4.37 C
128 15-02-2020 10:35:00 4.9 C 98 % 4.61 C
129 15-02-2020 10:40:00 5.1 C 98 % 4.81 C
130 15-02-2020 10:45:00 5.2 C 97 % 4.76 C
131 15-02-2020 10:50:00 5.2 C 97 % 4.76 C
132 15-02-2020 10:55:00 5.3 C 98 % 5.01 C
133 15-02-2020 11:00:00 5.3 C 97 % 4.86 C
134 15-02-2020 11:05:00 5.4 C 97 % 4.96 C
135 15-02-2020 11:10:00 5.7 C 97 % 5.26 C
136 15-02-2020 11:15:00 6 C 98 % 5.71 C
137 15-02-2020 11:20:00 6.3 C 98 % 6.01 C
138 15-02-2020 11:25:00 6.5 C 97 % 6.06 C
139 15-02-2020 11:30:00 6.7 C 98 % 6.41 C
140 15-02-2020 11:35:00 6.8 C 97 % 6.36 C
141 15-02-2020 11:40:00 7.1 C 97 % 6.66 C
142 15-02-2020 11:45:00 7.2 C 98 % 6.91 C
143 15-02-2020 11:50:00 7.4 C 97 % 6.96 C
144 15-02-2020 11:55:00 7.6 C 97 % 7.16 C
145 15-02-2020 12:00:00 7.7 C 97 % 7.25 C
146 15-02-2020 12:05:00 7.8 C 96 % 7.2 C
147 15-02-2020 12:10:00 8 C 96 % 7.4 C
148 15-02-2020 12:15:00 8.2 C 95 % 7.45 C
149 15-02-2020 12:20:00 8.3 C 94 % 7.39 C
150 15-02-2020 12:25:00 8.6 C 94 % 7.69 C
Sensor: Nr:Datum:Temp:Feuchte:Taupunkt:
Aussen-T/F 151 15-02-2020 12:30:00 8.8 C 93 % 7.73 C
152 15-02-2020 12:35:00 9.1 C 91 % 7.71 C
153 15-02-2020 12:40:00 9.4 C 89 % 7.68 C
154 15-02-2020 12:45:00 9.7 C 87 % 7.64 C
155 15-02-2020 12:50:00 9.9 C 86 % 7.67 C
156 15-02-2020 12:55:00 10.2 C 85 % 7.79 C
157 15-02-2020 13:00:00 10.4 C 83 % 7.64 C
158 15-02-2020 13:05:00 10.6 C 83 % 7.84 C
159 15-02-2020 13:10:00 10.7 C 80 % 7.4 C
160 15-02-2020 13:15:00 10.8 C 79 % 7.31 C
161 15-02-2020 13:20:00 11 C 78 % 7.32 C
162 15-02-2020 13:25:00 11.2 C 77 % 7.32 C
163 15-02-2020 13:30:00 11.3 C 77 % 7.42 C
164 15-02-2020 13:35:00 11.4 C 77 % 7.52 C
165 15-02-2020 13:40:00 11.6 C 75 % 7.33 C
166 15-02-2020 13:45:00 11.7 C 74 % 7.23 C
167 15-02-2020 13:50:00 11.8 C 75 % 7.52 C
168 15-02-2020 13:55:00 11.8 C 73 % 7.12 C
169 15-02-2020 14:00:00 11.8 C 74 % 7.32 C
170 15-02-2020 14:05:00 11.8 C 74 % 7.32 C
171 15-02-2020 14:10:00 11.7 C 73 % 7.03 C
172 15-02-2020 14:15:00 11.7 C 73 % 7.03 C
173 15-02-2020 14:20:00 11.6 C 74 % 7.13 C
174 15-02-2020 14:25:00 11.4 C 74 % 6.94 C
175 15-02-2020 14:30:00 11.3 C 73 % 6.64 C
Sensor: Nr:Datum:Temp:Feuchte:Taupunkt:
Aussen-T/F 176 15-02-2020 14:35:00 11.3 C 74 % 6.84 C
177 15-02-2020 14:40:00 11.3 C 75 % 7.04 C
178 15-02-2020 14:45:00 11.2 C 74 % 6.74 C
179 15-02-2020 14:50:00 11.2 C 74 % 6.74 C
180 15-02-2020 14:55:00 11.1 C 74 % 6.65 C
181 15-02-2020 15:00:00 11.2 C 74 % 6.74 C
182 15-02-2020 15:05:00 11.2 C 76 % 7.13 C
183 15-02-2020 15:10:00 11.2 C 75 % 6.94 C
184 15-02-2020 15:15:00 11.3 C 73 % 6.64 C
185 15-02-2020 15:20:00 11.4 C 73 % 6.74 C
186 15-02-2020 15:25:00 11.6 C 73 % 6.93 C
187 15-02-2020 15:30:00 11.7 C 73 % 7.03 C
188 15-02-2020 15:35:00 11.7 C 73 % 7.03 C
189 15-02-2020 15:40:00 11.6 C 73 % 6.93 C
190 15-02-2020 15:45:00 11.7 C 72 % 6.83 C
191 15-02-2020 15:50:00 11.7 C 73 % 7.03 C
192 15-02-2020 15:55:00 11.8 C 74 % 7.32 C
193 15-02-2020 16:00:00 11.7 C 72 % 6.83 C
194 15-02-2020 16:05:00 11.7 C 73 % 7.03 C
195 15-02-2020 16:10:00 11.6 C 73 % 6.93 C
196 15-02-2020 16:15:00 11.6 C 74 % 7.13 C
197 15-02-2020 16:20:00 11.4 C 75 % 7.13 C
198 15-02-2020 16:25:00 11.2 C 76 % 7.13 C
199 15-02-2020 16:30:00 11.1 C 77 % 7.23 C
200 15-02-2020 16:35:00 10.7 C 78 % 7.03 C
Sensor: Nr:Datum:Temp:Feuchte:Taupunkt:
Aussen-T/F 201 15-02-2020 16:40:00 10.4 C 79 % 6.92 C
202 15-02-2020 16:45:00 10.2 C 80 % 6.91 C
203 15-02-2020 16:50:00 9.9 C 80 % 6.62 C
204 15-02-2020 16:55:00 9.9 C 81 % 6.8 C
205 15-02-2020 17:00:00 9.8 C 81 % 6.7 C
206 15-02-2020 17:05:00 9.6 C 81 % 6.5 C
207 15-02-2020 17:10:00 9.5 C 81 % 6.41 C
208 15-02-2020 17:15:00 9.3 C 83 % 6.57 C
209 15-02-2020 17:20:00 9.2 C 83 % 6.47 C
210 15-02-2020 17:25:00 8.9 C 84 % 6.35 C
211 15-02-2020 17:30:00 8.8 C 84 % 6.25 C
212 15-02-2020 17:35:00 8.6 C 85 % 6.23 C
213 15-02-2020 17:40:00 8.4 C 85 % 6.03 C
214 15-02-2020 17:45:00 8.3 C 85 % 5.93 C
215 15-02-2020 17:50:00 8.2 C 86 % 6 C
216 15-02-2020 17:55:00 8.1 C 86 % 5.9 C
217 15-02-2020 18:00:00 7.9 C 87 % 5.87 C
218 15-02-2020 18:05:00 7.7 C 87 % 5.68 C
219 15-02-2020 18:10:00 7.7 C 88 % 5.84 C
220 15-02-2020 18:15:00 7.6 C 88 % 5.74 C
221 15-02-2020 18:20:00 7.6 C 88 % 5.74 C
222 15-02-2020 18:25:00 7.6 C 89 % 5.91 C
223 15-02-2020 18:30:00 7.6 C 89 % 5.91 C
224 15-02-2020 18:35:00 7.5 C 89 % 5.81 C
225 15-02-2020 18:40:00 7.5 C 89 % 5.81 C
Sensor: Nr:Datum:Temp:Feuchte:Taupunkt:
Aussen-T/F 226 15-02-2020 18:45:00 7.4 C 89 % 5.71 C
227 15-02-2020 18:50:00 7.4 C 90 % 5.87 C
228 15-02-2020 18:55:00 7.4 C 90 % 5.87 C
229 15-02-2020 19:00:00 7.4 C 90 % 5.87 C
230 15-02-2020 19:05:00 7.4 C 89 % 5.71 C
231 15-02-2020 19:10:00 7.4 C 90 % 5.87 C
232 15-02-2020 19:15:00 7.4 C 89 % 5.71 C
233 15-02-2020 19:20:00 7.4 C 89 % 5.71 C
234 15-02-2020 19:25:00 7.4 C 90 % 5.87 C
235 15-02-2020 19:30:00 7.4 C 89 % 5.71 C
236 15-02-2020 19:35:00 7.3 C 90 % 5.77 C
237 15-02-2020 19:40:00 7.3 C 90 % 5.77 C
238 15-02-2020 19:45:00 7.3 C 90 % 5.77 C
239 15-02-2020 19:50:00 7.3 C 90 % 5.77 C
240 15-02-2020 19:55:00 7.2 C 90 % 5.67 C
241 15-02-2020 20:00:00 7.2 C 90 % 5.67 C
242 15-02-2020 20:05:00 7.3 C 90 % 5.77 C
243 15-02-2020 20:10:00 7.3 C 89 % 5.61 C
244 15-02-2020 20:15:00 7.5 C 89 % 5.81 C
245 15-02-2020 20:20:00 7.6 C 89 % 5.91 C
246 15-02-2020 20:25:00 7.7 C 89 % 6 C
247 15-02-2020 20:30:00 7.7 C 89 % 6 C
248 15-02-2020 20:35:00 7.7 C 88 % 5.84 C
249 15-02-2020 20:40:00 7.8 C 88 % 5.94 C
250 15-02-2020 20:45:00 7.8 C 88 % 5.94 C
Sensor: Nr:Datum:Temp:Feuchte:Taupunkt:
Aussen-T/F 251 15-02-2020 20:50:00 7.9 C 88 % 6.04 C
252 15-02-2020 20:55:00 7.9 C 88 % 6.04 C
253 15-02-2020 21:00:00 7.9 C 88 % 6.04 C
254 15-02-2020 21:05:00 7.9 C 87 % 5.87 C
255 15-02-2020 21:10:00 8 C 88 % 6.14 C
256 15-02-2020 21:15:00 7.9 C 87 % 5.87 C
257 15-02-2020 21:20:00 7.9 C 87 % 5.87 C
258 15-02-2020 21:25:00 8 C 86 % 5.81 C
259 15-02-2020 21:30:00 8.2 C 86 % 6 C
260 15-02-2020 21:35:00 8.2 C 85 % 5.83 C
261 15-02-2020 21:40:00 8.3 C 85 % 5.93 C
262 15-02-2020 21:45:00 8.3 C 85 % 5.93 C
263 15-02-2020 21:50:00 8.3 C 85 % 5.93 C
264 15-02-2020 21:55:00 8.3 C 84 % 5.76 C
265 15-02-2020 22:00:00 8.3 C 85 % 5.93 C
266 15-02-2020 22:05:00 8.3 C 84 % 5.76 C
267 15-02-2020 22:10:00 8.3 C 84 % 5.76 C
268 15-02-2020 22:15:00 8.4 C 84 % 5.86 C
269 15-02-2020 22:20:00 8.3 C 84 % 5.76 C
270 15-02-2020 22:25:00 8.4 C 83 % 5.69 C
271 15-02-2020 22:30:00 8.6 C 83 % 5.88 C
272 15-02-2020 22:35:00 8.7 C 83 % 5.98 C
273 15-02-2020 22:40:00 8.8 C 83 % 6.08 C
274 15-02-2020 22:45:00 9.1 C 82 % 6.19 C
275 15-02-2020 22:50:00 9.2 C 81 % 6.11 C
Sensor: Nr:Datum:Temp:Feuchte:Taupunkt:
Aussen-T/F 276 15-02-2020 22:55:00 9.3 C 81 % 6.21 C
277 15-02-2020 23:00:00 9.3 C 81 % 6.21 C
278 15-02-2020 23:05:00 9.4 C 79 % 5.95 C
279 15-02-2020 23:10:00 9.9 C 77 % 6.06 C
280 15-02-2020 23:15:00 10.2 C 77 % 6.35 C
281 15-02-2020 23:20:00 10.3 C 77 % 6.45 C
282 15-02-2020 23:25:00 10.2 C 77 % 6.35 C
283 15-02-2020 23:30:00 10.1 C 78 % 6.44 C
284 15-02-2020 23:35:00 9.9 C 79 % 6.43 C
285 15-02-2020 23:40:00 9.9 C 78 % 6.25 C
286 15-02-2020 23:45:00 10.1 C 76 % 6.07 C
287 15-02-2020 23:50:00 10.3 C 76 % 6.26 C
288 15-02-2020 23:55:00 10.4 C 77 % 6.55 C

Legende:
   Min
   Max


Maximal/Minimal-Werte vom 15.02.2020 - 15.02.2020

Sensor Min Max Avg
Temp
(Aussen-T/F)
1.4 °C
15-02-2020  07:35:00
11.8 °C
15-02-2020  13:50:00
6.23 °C
Feuchte
(Aussen-T/F)
72 %
15-02-2020  15:45:00
98 %
15-02-2020  09:45:00
89.53 %
Taupunkt
(Aussen-T/F)
0.98 C
15-02-2020  07:35:00
7.84 C
15-02-2020  13:05:00
4.54 C

Die Daten stammen von einer Davis Vantage Pro 2 Wetter-Station und werden unter Linux mit der Software wview2wettercgi und aufbereitet. Alle Angaben erfolgen ohne Gewähr für ihre Vollständigkeit oder Richtigkeit.
Kontakt: Rainer Krienke krienke@uni-koblenz.de . Meine Webseiten an der Uni Koblenz oder privat.
Version: $Revision: 0.78 $